sensor_id;sensor_type;location;lat;lon;timestamp;P1;durP1;ratioP1;P2;durP2;ratioP2
59786;SDS011;45672;51.612;5.536;2023-04-09T00:00:40;29.02;;;22.15;;
59786;SDS011;45672;51.612;5.536;2023-04-09T00:03:05;29.30;;;22.00;;
59786;SDS011;45672;51.612;5.536;2023-04-09T00:05:31;30.30;;;22.73;;
59786;SDS011;45672;51.612;5.536;2023-04-09T00:07:56;29.73;;;22.15;;
59786;SDS011;45672;51.612;5.536;2023-04-09T00:10:21;29.05;;;22.33;;
59786;SDS011;45672;51.612;5.536;2023-04-09T00:12:47;29.08;;;22.38;;
59786;SDS011;45672;51.612;5.536;2023-04-09T00:15:12;29.38;;;22.15;;
59786;SDS011;45672;51.612;5.536;2023-04-09T00:17:37;29.52;;;22.33;;
59786;SDS011;45672;51.612;5.536;2023-04-09T00:20:03;28.80;;;22.23;;
59786;SDS011;45672;51.612;5.536;2023-04-09T00:22:29;34.42;;;22.67;;
59786;SDS011;45672;51.612;5.536;2023-04-09T00:24:54;32.03;;;22.20;;
59786;SDS011;45672;51.612;5.536;2023-04-09T00:27:20;31.58;;;22.55;;
59786;SDS011;45672;51.612;5.536;2023-04-09T00:29:45;30.67;;;23.15;;
59786;SDS011;45672;51.612;5.536;2023-04-09T00:32:11;30.98;;;22.98;;
59786;SDS011;45672;51.612;5.536;2023-04-09T00:34:37;34.83;;;24.25;;
59786;SDS011;45672;51.612;5.536;2023-04-09T00:37:02;31.65;;;23.85;;
59786;SDS011;45672;51.612;5.536;2023-04-09T00:39:28;34.88;;;23.45;;
59786;SDS011;45672;51.612;5.536;2023-04-09T00:41:57;33.50;;;23.95;;
59786;SDS011;45672;51.612;5.536;2023-04-09T00:44:23;32.80;;;24.30;;
59786;SDS011;45672;51.612;5.536;2023-04-09T00:46:49;34.72;;;25.10;;
59786;SDS011;45672;51.612;5.536;2023-04-09T00:49:14;31.70;;;24.00;;
59786;SDS011;45672;51.612;5.536;2023-04-09T00:51:40;34.15;;;24.40;;
59786;SDS011;45672;51.612;5.536;2023-04-09T00:54:06;32.92;;;24.52;;
59786;SDS011;45672;51.612;5.536;2023-04-09T00:56:31;36.97;;;24.48;;
59786;SDS011;45672;51.612;5.536;2023-04-09T00:58:57;34.10;;;24.27;;
59786;SDS011;45672;51.612;5.536;2023-04-09T01:01:23;35.15;;;24.42;;
59786;SDS011;45672;51.612;5.536;2023-04-09T01:03:48;33.00;;;24.17;;
59786;SDS011;45672;51.612;5.536;2023-04-09T01:06:16;35.55;;;24.40;;
59786;SDS011;45672;51.612;5.536;2023-04-09T01:11:58;33.47;;;23.33;;
59786;SDS011;45672;51.612;5.536;2023-04-09T01:17:21;33.42;;;23.80;;
59786;SDS011;45672;51.612;5.536;2023-04-09T01:22:39;34.38;;;24.83;;
59786;SDS011;45672;51.612;5.536;2023-04-09T01:25:25;34.35;;;23.50;;
59786;SDS011;45672;51.612;5.536;2023-04-09T01:30:37;35.03;;;23.70;;
59786;SDS011;45672;51.612;5.536;2023-04-09T01:33:04;35.35;;;23.83;;
59786;SDS011;45672;51.612;5.536;2023-04-09T01:35:30;36.28;;;24.85;;
59786;SDS011;45672;51.612;5.536;2023-04-09T01:37:55;37.30;;;25.25;;
59786;SDS011;45672;51.612;5.536;2023-04-09T01:40:22;38.20;;;24.70;;
59786;SDS011;45672;51.612;5.536;2023-04-09T01:42:48;36.42;;;24.98;;
59786;SDS011;45672;51.612;5.536;2023-04-09T01:45:15;35.90;;;24.77;;
59786;SDS011;45672;51.612;5.536;2023-04-09T01:47:40;39.20;;;24.98;;
59786;SDS011;45672;51.612;5.536;2023-04-09T01:50:07;38.33;;;25.50;;
59786;SDS011;45672;51.612;5.536;2023-04-09T01:52:32;36.10;;;24.85;;
59786;SDS011;45672;51.612;5.536;2023-04-09T01:54:57;36.45;;;25.77;;
59786;SDS011;45672;51.612;5.536;2023-04-09T01:57:23;36.13;;;26.00;;
59786;SDS011;45672;51.612;5.536;2023-04-09T01:59:48;46.25;;;25.63;;
59786;SDS011;45672;51.612;5.536;2023-04-09T02:02:17;35.13;;;25.17;;
59786;SDS011;45672;51.612;5.536;2023-04-09T02:04:51;37.05;;;26.33;;
59786;SDS011;45672;51.612;5.536;2023-04-09T02:09:51;39.08;;;26.13;;
59786;SDS011;45672;51.612;5.536;2023-04-09T02:12:18;41.38;;;26.90;;
59786;SDS011;45672;51.612;5.536;2023-04-09T02:14:45;39.83;;;26.77;;
59786;SDS011;45672;51.612;5.536;2023-04-09T02:17:15;43.80;;;27.90;;
59786;SDS011;45672;51.612;5.536;2023-04-09T02:19:41;43.53;;;27.83;;
59786;SDS011;45672;51.612;5.536;2023-04-09T02:22:08;44.15;;;28.30;;
59786;SDS011;45672;51.612;5.536;2023-04-09T02:24:34;41.50;;;28.20;;
59786;SDS011;45672;51.612;5.536;2023-04-09T02:27:00;40.75;;;27.25;;
59786;SDS011;45672;51.612;5.536;2023-04-09T02:29:26;42.17;;;28.65;;
59786;SDS011;45672;51.612;5.536;2023-04-09T02:31:51;44.10;;;28.80;;
59786;SDS011;45672;51.612;5.536;2023-04-09T02:34:17;49.75;;;30.02;;
59786;SDS011;45672;51.612;5.536;2023-04-09T02:36:43;46.60;;;29.35;;
59786;SDS011;45672;51.612;5.536;2023-04-09T02:39:08;44.58;;;29.30;;
59786;SDS011;45672;51.612;5.536;2023-04-09T02:41:33;47.72;;;29.45;;
59786;SDS011;45672;51.612;5.536;2023-04-09T02:43:59;49.67;;;30.20;;
59786;SDS011;45672;51.612;5.536;2023-04-09T02:46:24;48.67;;;29.25;;
59786;SDS011;45672;51.612;5.536;2023-04-09T02:48:50;47.22;;;29.95;;
59786;SDS011;45672;51.612;5.536;2023-04-09T02:51:15;46.70;;;28.92;;
59786;SDS011;45672;51.612;5.536;2023-04-09T02:53:40;45.47;;;29.20;;
59786;SDS011;45672;51.612;5.536;2023-04-09T02:56:06;44.67;;;29.13;;
59786;SDS011;45672;51.612;5.536;2023-04-09T02:58:31;49.22;;;30.15;;
59786;SDS011;45672;51.612;5.536;2023-04-09T03:00:56;44.70;;;29.33;;
59786;SDS011;45672;51.612;5.536;2023-04-09T03:03:22;46.15;;;29.25;;
59786;SDS011;45672;51.612;5.536;2023-04-09T03:05:47;46.30;;;29.83;;
59786;SDS011;45672;51.612;5.536;2023-04-09T03:08:12;49.78;;;30.02;;
59786;SDS011;45672;51.612;5.536;2023-04-09T03:10:37;47.25;;;30.60;;
59786;SDS011;45672;51.612;5.536;2023-04-09T03:13:03;45.70;;;29.80;;
59786;SDS011;45672;51.612;5.536;2023-04-09T03:15:28;45.00;;;29.77;;
59786;SDS011;45672;51.612;5.536;2023-04-09T03:17:53;46.30;;;29.73;;
59786;SDS011;45672;51.612;5.536;2023-04-09T03:20:19;46.17;;;30.45;;
59786;SDS011;45672;51.612;5.536;2023-04-09T03:22:44;46.83;;;30.42;;
59786;SDS011;45672;51.612;5.536;2023-04-09T03:25:09;49.65;;;30.45;;
59786;SDS011;45672;51.612;5.536;2023-04-09T03:27:35;48.17;;;30.05;;
59786;SDS011;45672;51.612;5.536;2023-04-09T03:30:00;51.88;;;31.40;;
59786;SDS011;45672;51.612;5.536;2023-04-09T03:32:26;50.22;;;31.50;;
59786;SDS011;45672;51.612;5.536;2023-04-09T03:34:51;53.95;;;29.90;;
59786;SDS011;45672;51.612;5.536;2023-04-09T03:37:17;53.35;;;31.52;;
59786;SDS011;45672;51.612;5.536;2023-04-09T03:39:42;49.60;;;31.27;;
59786;SDS011;45672;51.612;5.536;2023-04-09T03:42:07;48.35;;;31.10;;
59786;SDS011;45672;51.612;5.536;2023-04-09T03:44:33;48.25;;;30.42;;
59786;SDS011;45672;51.612;5.536;2023-04-09T03:46:58;46.83;;;30.67;;
59786;SDS011;45672;51.612;5.536;2023-04-09T03:49:23;47.83;;;30.60;;
59786;SDS011;45672;51.612;5.536;2023-04-09T03:51:48;49.60;;;30.75;;
59786;SDS011;45672;51.612;5.536;2023-04-09T03:54:14;51.10;;;30.30;;
59786;SDS011;45672;51.612;5.536;2023-04-09T03:56:39;50.20;;;31.20;;
59786;SDS011;45672;51.612;5.536;2023-04-09T03:59:05;48.22;;;28.90;;
59786;SDS011;45672;51.612;5.536;2023-04-09T04:01:30;48.20;;;29.05;;
59786;SDS011;45672;51.612;5.536;2023-04-09T04:03:55;45.75;;;28.60;;
59786;SDS011;45672;51.612;5.536;2023-04-09T04:06:21;45.97;;;28.75;;
59786;SDS011;45672;51.612;5.536;2023-04-09T04:08:46;47.20;;;28.05;;
59786;SDS011;45672;51.612;5.536;2023-04-09T04:11:11;45.53;;;28.50;;
59786;SDS011;45672;51.612;5.536;2023-04-09T04:13:37;44.83;;;28.42;;
59786;SDS011;45672;51.612;5.536;2023-04-09T04:16:05;43.72;;;27.15;;
59786;SDS011;45672;51.612;5.536;2023-04-09T04:18:31;41.75;;;27.20;;
59786;SDS011;45672;51.612;5.536;2023-04-09T04:20:56;45.60;;;26.90;;
59786;SDS011;45672;51.612;5.536;2023-04-09T04:23:22;42.13;;;26.88;;
59786;SDS011;45672;51.612;5.536;2023-04-09T04:25:47;45.67;;;26.92;;
59786;SDS011;45672;51.612;5.536;2023-04-09T04:28:12;42.80;;;25.83;;
59786;SDS011;45672;51.612;5.536;2023-04-09T04:30:39;41.55;;;25.80;;
59786;SDS011;45672;51.612;5.536;2023-04-09T04:33:06;44.05;;;26.92;;
59786;SDS011;45672;51.612;5.536;2023-04-09T04:35:31;42.25;;;26.45;;
59786;SDS011;45672;51.612;5.536;2023-04-09T04:37:56;39.33;;;25.52;;
59786;SDS011;45672;51.612;5.536;2023-04-09T04:40:21;39.20;;;25.23;;
59786;SDS011;45672;51.612;5.536;2023-04-09T04:42:47;39.90;;;24.27;;
59786;SDS011;45672;51.612;5.536;2023-04-09T04:45:12;40.25;;;26.00;;
59786;SDS011;45672;51.612;5.536;2023-04-09T04:47:37;41.08;;;25.63;;
59786;SDS011;45672;51.612;5.536;2023-04-09T04:50:03;40.08;;;24.95;;
59786;SDS011;45672;51.612;5.536;2023-04-09T04:52:29;41.22;;;26.00;;
59786;SDS011;45672;51.612;5.536;2023-04-09T04:54:54;38.03;;;24.50;;
59786;SDS011;45672;51.612;5.536;2023-04-09T04:57:19;39.50;;;24.85;;
59786;SDS011;45672;51.612;5.536;2023-04-09T04:59:45;37.28;;;24.15;;
59786;SDS011;45672;51.612;5.536;2023-04-09T05:02:10;42.17;;;25.02;;
59786;SDS011;45672;51.612;5.536;2023-04-09T05:04:35;41.65;;;25.55;;
59786;SDS011;45672;51.612;5.536;2023-04-09T05:07:00;41.15;;;25.20;;
59786;SDS011;45672;51.612;5.536;2023-04-09T05:09:26;37.83;;;24.08;;
59786;SDS011;45672;51.612;5.536;2023-04-09T05:11:51;40.75;;;25.13;;
59786;SDS011;45672;51.612;5.536;2023-04-09T05:14:16;39.13;;;24.13;;
59786;SDS011;45672;51.612;5.536;2023-04-09T05:16:42;40.58;;;24.80;;
59786;SDS011;45672;51.612;5.536;2023-04-09T05:19:07;41.70;;;24.67;;
59786;SDS011;45672;51.612;5.536;2023-04-09T05:21:32;40.60;;;24.65;;
59786;SDS011;45672;51.612;5.536;2023-04-09T05:23:58;40.80;;;24.70;;
59786;SDS011;45672;51.612;5.536;2023-04-09T05:26:23;39.55;;;23.80;;
59786;SDS011;45672;51.612;5.536;2023-04-09T05:28:48;39.85;;;25.08;;
59786;SDS011;45672;51.612;5.536;2023-04-09T05:31:14;40.58;;;23.75;;
59786;SDS011;45672;51.612;5.536;2023-04-09T05:33:39;40.22;;;24.90;;
59786;SDS011;45672;51.612;5.536;2023-04-09T05:36:05;41.33;;;25.17;;
59786;SDS011;45672;51.612;5.536;2023-04-09T05:38:31;40.20;;;24.58;;
59786;SDS011;45672;51.612;5.536;2023-04-09T05:40:56;42.47;;;24.92;;
59786;SDS011;45672;51.612;5.536;2023-04-09T05:43:22;42.30;;;24.73;;
59786;SDS011;45672;51.612;5.536;2023-04-09T05:45:47;44.40;;;24.65;;
59786;SDS011;45672;51.612;5.536;2023-04-09T05:48:13;40.63;;;24.55;;
59786;SDS011;45672;51.612;5.536;2023-04-09T05:50:38;42.92;;;24.60;;
59786;SDS011;45672;51.612;5.536;2023-04-09T05:53:03;43.67;;;24.90;;
59786;SDS011;45672;51.612;5.536;2023-04-09T05:55:30;40.95;;;25.48;;
59786;SDS011;45672;51.612;5.536;2023-04-09T05:57:56;44.03;;;26.48;;
59786;SDS011;45672;51.612;5.536;2023-04-09T06:00:21;41.45;;;23.92;;
59786;SDS011;45672;51.612;5.536;2023-04-09T06:02:46;44.45;;;25.30;;
59786;SDS011;45672;51.612;5.536;2023-04-09T06:05:12;43.78;;;25.45;;
59786;SDS011;45672;51.612;5.536;2023-04-09T06:07:37;39.15;;;24.45;;
59786;SDS011;45672;51.612;5.536;2023-04-09T06:10:02;41.85;;;25.30;;
59786;SDS011;45672;51.612;5.536;2023-04-09T06:12:28;43.78;;;26.13;;
59786;SDS011;45672;51.612;5.536;2023-04-09T06:14:53;39.40;;;25.25;;
59786;SDS011;45672;51.612;5.536;2023-04-09T06:17:18;42.08;;;25.42;;
59786;SDS011;45672;51.612;5.536;2023-04-09T06:19:44;43.63;;;26.85;;
59786;SDS011;45672;51.612;5.536;2023-04-09T06:22:09;43.50;;;24.60;;
59786;SDS011;45672;51.612;5.536;2023-04-09T06:24:37;40.05;;;25.30;;
59786;SDS011;45672;51.612;5.536;2023-04-09T06:27:02;45.22;;;27.00;;
59786;SDS011;45672;51.612;5.536;2023-04-09T06:29:28;40.53;;;23.42;;
59786;SDS011;45672;51.612;5.536;2023-04-09T06:31:53;46.55;;;27.75;;
59786;SDS011;45672;51.612;5.536;2023-04-09T06:34:18;42.67;;;27.38;;
59786;SDS011;45672;51.612;5.536;2023-04-09T06:36:44;47.90;;;26.98;;
59786;SDS011;45672;51.612;5.536;2023-04-09T06:39:09;42.55;;;26.67;;
59786;SDS011;45672;51.612;5.536;2023-04-09T06:41:35;43.78;;;26.40;;
59786;SDS011;45672;51.612;5.536;2023-04-09T06:44:00;40.53;;;26.05;;
59786;SDS011;45672;51.612;5.536;2023-04-09T06:46:26;39.72;;;25.73;;
59786;SDS011;45672;51.612;5.536;2023-04-09T06:48:52;41.17;;;26.27;;
59786;SDS011;45672;51.612;5.536;2023-04-09T06:51:17;40.55;;;25.55;;
59786;SDS011;45672;51.612;5.536;2023-04-09T06:53:42;41.10;;;25.33;;
59786;SDS011;45672;51.612;5.536;2023-04-09T06:56:08;35.65;;;25.13;;
59786;SDS011;45672;51.612;5.536;2023-04-09T06:58:33;39.38;;;25.35;;
59786;SDS011;45672;51.612;5.536;2023-04-09T07:00:58;34.65;;;24.77;;
59786;SDS011;45672;51.612;5.536;2023-04-09T07:03:24;36.92;;;24.77;;
59786;SDS011;45672;51.612;5.536;2023-04-09T07:05:51;34.08;;;24.83;;
59786;SDS011;45672;51.612;5.536;2023-04-09T07:08:17;34.78;;;24.25;;
59786;SDS011;45672;51.612;5.536;2023-04-09T07:10:43;40.08;;;25.30;;
59786;SDS011;45672;51.612;5.536;2023-04-09T07:13:08;37.65;;;25.10;;
59786;SDS011;45672;51.612;5.536;2023-04-09T07:15:33;38.60;;;25.95;;
59786;SDS011;45672;51.612;5.536;2023-04-09T07:17:59;32.25;;;24.52;;
59786;SDS011;45672;51.612;5.536;2023-04-09T07:20:24;33.72;;;25.20;;
59786;SDS011;45672;51.612;5.536;2023-04-09T07:22:49;30.70;;;23.83;;
59786;SDS011;45672;51.612;5.536;2023-04-09T07:25:15;35.58;;;25.42;;
59786;SDS011;45672;51.612;5.536;2023-04-09T07:27:40;34.55;;;25.73;;
59786;SDS011;45672;51.612;5.536;2023-04-09T07:30:09;36.28;;;25.63;;
59786;SDS011;45672;51.612;5.536;2023-04-09T07:32:35;39.15;;;26.05;;
59786;SDS011;45672;51.612;5.536;2023-04-09T07:35:02;35.17;;;26.17;;
59786;SDS011;45672;51.612;5.536;2023-04-09T07:37:29;36.58;;;26.02;;
59786;SDS011;45672;51.612;5.536;2023-04-09T07:39:54;36.25;;;26.10;;
59786;SDS011;45672;51.612;5.536;2023-04-09T07:42:19;37.08;;;25.83;;
59786;SDS011;45672;51.612;5.536;2023-04-09T07:44:45;37.75;;;27.55;;
59786;SDS011;45672;51.612;5.536;2023-04-09T07:47:11;41.35;;;27.67;;
59786;SDS011;45672;51.612;5.536;2023-04-09T07:49:36;36.42;;;26.45;;
59786;SDS011;45672;51.612;5.536;2023-04-09T07:52:03;38.88;;;27.67;;
59786;SDS011;45672;51.612;5.536;2023-04-09T07:54:28;38.47;;;27.55;;
59786;SDS011;45672;51.612;5.536;2023-04-09T07:56:55;43.90;;;26.10;;
59786;SDS011;45672;51.612;5.536;2023-04-09T07:59:21;35.63;;;26.05;;
59786;SDS011;45672;51.612;5.536;2023-04-09T08:01:47;37.35;;;26.15;;
59786;SDS011;45672;51.612;5.536;2023-04-09T08:04:12;35.13;;;25.65;;
59786;SDS011;45672;51.612;5.536;2023-04-09T08:06:38;35.75;;;25.90;;
59786;SDS011;45672;51.612;5.536;2023-04-09T08:09:03;37.05;;;26.55;;
59786;SDS011;45672;51.612;5.536;2023-04-09T08:11:29;38.42;;;26.85;;
59786;SDS011;45672;51.612;5.536;2023-04-09T08:13:54;36.90;;;26.83;;
59786;SDS011;45672;51.612;5.536;2023-04-09T08:16:21;38.65;;;26.27;;
59786;SDS011;45672;51.612;5.536;2023-04-09T08:18:48;37.92;;;27.02;;
59786;SDS011;45672;51.612;5.536;2023-04-09T08:21:14;33.63;;;26.27;;
59786;SDS011;45672;51.612;5.536;2023-04-09T08:23:39;35.58;;;26.17;;
59786;SDS011;45672;51.612;5.536;2023-04-09T08:26:05;36.33;;;26.60;;
59786;SDS011;45672;51.612;5.536;2023-04-09T08:28:30;37.30;;;26.35;;
59786;SDS011;45672;51.612;5.536;2023-04-09T08:30:55;34.00;;;25.13;;
59786;SDS011;45672;51.612;5.536;2023-04-09T08:33:21;35.45;;;26.33;;
59786;SDS011;45672;51.612;5.536;2023-04-09T08:35:46;33.88;;;26.52;;
59786;SDS011;45672;51.612;5.536;2023-04-09T08:38:11;34.72;;;25.55;;
59786;SDS011;45672;51.612;5.536;2023-04-09T08:40:37;37.47;;;26.80;;
59786;SDS011;45672;51.612;5.536;2023-04-09T08:43:05;32.38;;;25.25;;
59786;SDS011;45672;51.612;5.536;2023-04-09T08:45:32;35.08;;;25.98;;
59786;SDS011;45672;51.612;5.536;2023-04-09T08:47:58;38.47;;;24.92;;
59786;SDS011;45672;51.612;5.536;2023-04-09T08:50:33;33.22;;;25.77;;
59786;SDS011;45672;51.612;5.536;2023-04-09T08:53:00;33.83;;;26.23;;
59786;SDS011;45672;51.612;5.536;2023-04-09T08:55:28;31.60;;;25.30;;
59786;SDS011;45672;51.612;5.536;2023-04-09T08:57:55;38.83;;;25.42;;
59786;SDS011;45672;51.612;5.536;2023-04-09T09:00:22;34.28;;;26.73;;
59786;SDS011;45672;51.612;5.536;2023-04-09T09:03:00;33.78;;;26.67;;
59786;SDS011;45672;51.612;5.536;2023-04-09T09:05:39;35.03;;;26.25;;
59786;SDS011;45672;51.612;5.536;2023-04-09T09:08:07;30.58;;;26.08;;
59786;SDS011;45672;51.612;5.536;2023-04-09T09:10:41;33.38;;;26.88;;
59786;SDS011;45672;51.612;5.536;2023-04-09T09:13:20;32.63;;;26.85;;
59786;SDS011;45672;51.612;5.536;2023-04-09T09:15:48;31.90;;;26.55;;
59786;SDS011;45672;51.612;5.536;2023-04-09T09:18:18;28.52;;;25.23;;
59786;SDS011;45672;51.612;5.536;2023-04-09T09:20:43;34.53;;;26.60;;
59786;SDS011;45672;51.612;5.536;2023-04-09T09:23:09;31.35;;;26.42;;
59786;SDS011;45672;51.612;5.536;2023-04-09T09:25:40;31.83;;;25.65;;
59786;SDS011;45672;51.612;5.536;2023-04-09T09:28:10;30.55;;;25.17;;
59786;SDS011;45672;51.612;5.536;2023-04-09T09:30:36;33.80;;;25.63;;
59786;SDS011;45672;51.612;5.536;2023-04-09T09:38:18;30.45;;;24.65;;
59786;SDS011;45672;51.612;5.536;2023-04-09T09:40:44;27.80;;;24.58;;
59786;SDS011;45672;51.612;5.536;2023-04-09T09:43:10;31.77;;;23.90;;
59786;SDS011;45672;51.612;5.536;2023-04-09T09:45:37;27.00;;;22.95;;
59786;SDS011;45672;51.612;5.536;2023-04-09T09:48:04;32.05;;;24.73;;
59786;SDS011;45672;51.612;5.536;2023-04-09T09:50:30;29.95;;;25.15;;
59786;SDS011;45672;51.612;5.536;2023-04-09T09:53:00;28.10;;;24.05;;
59786;SDS011;45672;51.612;5.536;2023-04-09T09:55:29;29.40;;;22.95;;
59786;SDS011;45672;51.612;5.536;2023-04-09T09:57:56;30.77;;;23.50;;
59786;SDS011;45672;51.612;5.536;2023-04-09T10:00:25;25.48;;;22.60;;
59786;SDS011;45672;51.612;5.536;2023-04-09T10:02:55;32.42;;;24.35;;
59786;SDS011;45672;51.612;5.536;2023-04-09T10:05:23;27.90;;;24.08;;
59786;SDS011;45672;51.612;5.536;2023-04-09T10:07:51;27.85;;;23.35;;
59786;SDS011;45672;51.612;5.536;2023-04-09T10:10:18;32.25;;;23.73;;
59786;SDS011;45672;51.612;5.536;2023-04-09T10:12:45;27.55;;;22.95;;
59786;SDS011;45672;51.612;5.536;2023-04-09T10:15:11;25.13;;;22.42;;
59786;SDS011;45672;51.612;5.536;2023-04-09T10:17:36;41.38;;;23.70;;
59786;SDS011;45672;51.612;5.536;2023-04-09T10:22:47;24.40;;;20.60;;
59786;SDS011;45672;51.612;5.536;2023-04-09T10:25:15;26.17;;;22.97;;
59786;SDS011;45672;51.612;5.536;2023-04-09T10:27:41;29.88;;;24.45;;
59786;SDS011;45672;51.612;5.536;2023-04-09T10:30:10;28.90;;;23.85;;
59786;SDS011;45672;51.612;5.536;2023-04-09T10:32:55;28.90;;;23.00;;
59786;SDS011;45672;51.612;5.536;2023-04-09T10:35:33;27.67;;;22.17;;
59786;SDS011;45672;51.612;5.536;2023-04-09T10:37:58;27.35;;;23.27;;
59786;SDS011;45672;51.612;5.536;2023-04-09T10:40:24;29.35;;;23.17;;
59786;SDS011;45672;51.612;5.536;2023-04-09T10:42:52;28.83;;;23.27;;
59786;SDS011;45672;51.612;5.536;2023-04-09T10:45:19;25.40;;;21.05;;
59786;SDS011;45672;51.612;5.536;2023-04-09T10:47:45;28.17;;;21.15;;
59786;SDS011;45672;51.612;5.536;2023-04-09T10:52:41;23.88;;;19.65;;
59786;SDS011;45672;51.612;5.536;2023-04-09T10:55:08;24.02;;;19.27;;
59786;SDS011;45672;51.612;5.536;2023-04-09T10:57:34;23.48;;;18.77;;
59786;SDS011;45672;51.612;5.536;2023-04-09T10:59:59;24.20;;;18.90;;
59786;SDS011;45672;51.612;5.536;2023-04-09T11:07:38;19.95;;;16.83;;
59786;SDS011;45672;51.612;5.536;2023-04-09T11:10:07;18.27;;;15.73;;
59786;SDS011;45672;51.612;5.536;2023-04-09T11:12:33;17.10;;;14.07;;
59786;SDS011;45672;51.612;5.536;2023-04-09T11:14:58;17.52;;;14.30;;
59786;SDS011;45672;51.612;5.536;2023-04-09T11:17:24;19.45;;;14.00;;
59786;SDS011;45672;51.612;5.536;2023-04-09T11:19:49;17.40;;;14.57;;
59786;SDS011;45672;51.612;5.536;2023-04-09T11:22:15;16.02;;;14.23;;
59786;SDS011;45672;51.612;5.536;2023-04-09T11:24:41;20.33;;;13.70;;
59786;SDS011;45672;51.612;5.536;2023-04-09T11:27:07;15.40;;;13.40;;
59786;SDS011;45672;51.612;5.536;2023-04-09T11:29:35;15.60;;;12.73;;
59786;SDS011;45672;51.612;5.536;2023-04-09T11:32:01;17.45;;;14.10;;
59786;SDS011;45672;51.612;5.536;2023-04-09T11:34:27;19.25;;;14.25;;
59786;SDS011;45672;51.612;5.536;2023-04-09T11:36:53;17.35;;;13.52;;
59786;SDS011;45672;51.612;5.536;2023-04-09T11:39:18;14.00;;;12.50;;
59786;SDS011;45672;51.612;5.536;2023-04-09T11:41:43;15.50;;;13.00;;
59786;SDS011;45672;51.612;5.536;2023-04-09T11:44:09;16.52;;;12.75;;
59786;SDS011;45672;51.612;5.536;2023-04-09T11:46:34;15.88;;;11.95;;
59786;SDS011;45672;51.612;5.536;2023-04-09T11:49:01;17.58;;;11.88;;
59786;SDS011;45672;51.612;5.536;2023-04-09T11:51:27;16.33;;;12.63;;
59786;SDS011;45672;51.612;5.536;2023-04-09T11:53:54;17.23;;;11.63;;
59786;SDS011;45672;51.612;5.536;2023-04-09T11:56:20;15.85;;;11.45;;
59786;SDS011;45672;51.612;5.536;2023-04-09T11:58:46;14.90;;;12.23;;
59786;SDS011;45672;51.612;5.536;2023-04-09T12:01:12;15.02;;;12.38;;
59786;SDS011;45672;51.612;5.536;2023-04-09T12:03:38;15.07;;;12.63;;
59786;SDS011;45672;51.612;5.536;2023-04-09T12:06:04;12.75;;;11.45;;
59786;SDS011;45672;51.612;5.536;2023-04-09T12:08:32;11.85;;;10.30;;
59786;SDS011;45672;51.612;5.536;2023-04-09T12:11:08;11.38;;;10.25;;
59786;SDS011;45672;51.612;5.536;2023-04-09T12:13:35;10.77;;;9.68;;
59786;SDS011;45672;51.612;5.536;2023-04-09T12:16:01;12.18;;;9.73;;
59786;SDS011;45672;51.612;5.536;2023-04-09T12:18:29;13.25;;;9.88;;
59786;SDS011;45672;51.612;5.536;2023-04-09T12:20:54;10.75;;;9.32;;
59786;SDS011;45672;51.612;5.536;2023-04-09T12:23:20;11.05;;;9.95;;
59786;SDS011;45672;51.612;5.536;2023-04-09T12:25:45;11.85;;;10.15;;
59786;SDS011;45672;51.612;5.536;2023-04-09T12:28:12;10.98;;;9.80;;
59786;SDS011;45672;51.612;5.536;2023-04-09T12:30:39;11.23;;;9.95;;
59786;SDS011;45672;51.612;5.536;2023-04-09T12:33:05;12.38;;;9.77;;
59786;SDS011;45672;51.612;5.536;2023-04-09T12:35:30;11.05;;;9.40;;
59786;SDS011;45672;51.612;5.536;2023-04-09T12:37:56;10.85;;;9.40;;
59786;SDS011;45672;51.612;5.536;2023-04-09T12:40:23;11.05;;;9.93;;
59786;SDS011;45672;51.612;5.536;2023-04-09T12:42:48;11.10;;;9.73;;
59786;SDS011;45672;51.612;5.536;2023-04-09T12:45:14;10.43;;;9.32;;
59786;SDS011;45672;51.612;5.536;2023-04-09T12:47:41;12.20;;;10.00;;
59786;SDS011;45672;51.612;5.536;2023-04-09T12:50:07;12.68;;;9.10;;
59786;SDS011;45672;51.612;5.536;2023-04-09T12:52:34;10.45;;;9.40;;
59786;SDS011;45672;51.612;5.536;2023-04-09T12:55:00;10.27;;;9.18;;
59786;SDS011;45672;51.612;5.536;2023-04-09T12:57:26;12.23;;;9.85;;
59786;SDS011;45672;51.612;5.536;2023-04-09T12:59:51;12.18;;;9.88;;
59786;SDS011;45672;51.612;5.536;2023-04-09T13:02:18;10.30;;;9.30;;
59786;SDS011;45672;51.612;5.536;2023-04-09T13:04:43;10.95;;;9.82;;
59786;SDS011;45672;51.612;5.536;2023-04-09T13:07:09;11.15;;;9.88;;
59786;SDS011;45672;51.612;5.536;2023-04-09T13:09:35;10.73;;;9.40;;
59786;SDS011;45672;51.612;5.536;2023-04-09T13:12:01;10.38;;;9.00;;
59786;SDS011;45672;51.612;5.536;2023-04-09T13:14:26;11.45;;;9.30;;
59786;SDS011;45672;51.612;5.536;2023-04-09T13:16:52;10.82;;;9.43;;
59786;SDS011;45672;51.612;5.536;2023-04-09T13:19:17;12.63;;;9.95;;
59786;SDS011;45672;51.612;5.536;2023-04-09T13:21:43;17.20;;;9.55;;
59786;SDS011;45672;51.612;5.536;2023-04-09T13:24:08;13.88;;;9.80;;
59786;SDS011;45672;51.612;5.536;2023-04-09T13:26:33;9.55;;;8.55;;
59786;SDS011;45672;51.612;5.536;2023-04-09T13:28:59;10.02;;;8.90;;
59786;SDS011;45672;51.612;5.536;2023-04-09T13:31:25;12.25;;;9.27;;
59786;SDS011;45672;51.612;5.536;2023-04-09T13:33:51;10.50;;;8.55;;
59786;SDS011;45672;51.612;5.536;2023-04-09T13:36:16;12.82;;;9.40;;
59786;SDS011;45672;51.612;5.536;2023-04-09T13:38:42;13.75;;;9.88;;
59786;SDS011;45672;51.612;5.536;2023-04-09T13:41:08;12.10;;;9.50;;
59786;SDS011;45672;51.612;5.536;2023-04-09T13:43:33;10.20;;;9.20;;
59786;SDS011;45672;51.612;5.536;2023-04-09T13:45:58;13.63;;;9.48;;
59786;SDS011;45672;51.612;5.536;2023-04-09T13:48:24;12.35;;;9.38;;
59786;SDS011;45672;51.612;5.536;2023-04-09T13:50:49;10.75;;;9.55;;
59786;SDS011;45672;51.612;5.536;2023-04-09T13:53:15;10.13;;;9.10;;
59786;SDS011;45672;51.612;5.536;2023-04-09T13:55:41;10.75;;;8.93;;
59786;SDS011;45672;51.612;5.536;2023-04-09T13:58:07;10.98;;;9.88;;
59786;SDS011;45672;51.612;5.536;2023-04-09T14:00:32;11.73;;;10.00;;
59786;SDS011;45672;51.612;5.536;2023-04-09T14:02:58;10.40;;;9.30;;
59786;SDS011;45672;51.612;5.536;2023-04-09T14:05:23;10.38;;;9.25;;
59786;SDS011;45672;51.612;5.536;2023-04-09T14:07:49;10.18;;;9.18;;
59786;SDS011;45672;51.612;5.536;2023-04-09T14:10:14;10.32;;;9.27;;
59786;SDS011;45672;51.612;5.536;2023-04-09T14:12:40;10.40;;;9.18;;
59786;SDS011;45672;51.612;5.536;2023-04-09T14:15:06;10.60;;;8.77;;
59786;SDS011;45672;51.612;5.536;2023-04-09T14:17:31;9.80;;;8.80;;
59786;SDS011;45672;51.612;5.536;2023-04-09T14:19:57;10.43;;;9.10;;
59786;SDS011;45672;51.612;5.536;2023-04-09T14:22:23;12.50;;;9.02;;
59786;SDS011;45672;51.612;5.536;2023-04-09T14:24:49;12.77;;;9.65;;
59786;SDS011;45672;51.612;5.536;2023-04-09T14:27:15;11.25;;;8.95;;
59786;SDS011;45672;51.612;5.536;2023-04-09T14:29:40;10.10;;;9.02;;
59786;SDS011;45672;51.612;5.536;2023-04-09T14:32:06;11.57;;;9.40;;
59786;SDS011;45672;51.612;5.536;2023-04-09T14:34:31;11.85;;;10.10;;
59786;SDS011;45672;51.612;5.536;2023-04-09T14:36:57;11.05;;;9.52;;
59786;SDS011;45672;51.612;5.536;2023-04-09T14:39:22;10.93;;;9.73;;
59786;SDS011;45672;51.612;5.536;2023-04-09T14:41:47;15.88;;;10.88;;
59786;SDS011;45672;51.612;5.536;2023-04-09T14:44:13;13.63;;;9.25;;
59786;SDS011;45672;51.612;5.536;2023-04-09T14:46:38;10.90;;;9.63;;